Detall de PIREP

Printer-friendly versionPDF version

[2015/06/23 11:29:00]
Flight IATA:CT0001
Pilot Number:016
Company ICAO:CAT
Aircraft Type:B763/F
PAX:163
Departing Airport: LEBL
Destination Airport: LEPA
Alternate Airport:LEBL
Online: VATSIM
Route:LARPA B31 TOLSO
Flight Level:F190
No Slew and time accel
No pause
Crash detect
Detect pilot in Cockpit between each 30 and 45 minutes
11:29 Zero fuel Weight: 230772 Lbs, Fuel Weight: 26078 Lbs
11:29 VATSIM:LEBL 222130Z 23007KT 210V290 9999 FEW025 23/20 Q1014 NOSIG
11:29 VATSIM:LEPA 222130Z 14001KT CAVOK 23/18 Q1014 NOSIG
11:31 Parking Brakes off
11:37 Take-off
11:37 Take off Weight: 255269 Lbs
11:37 Wind: 000º @ 000 Knots Heading: 245º
11:37 POS N41º 17´ 15´´ E002º 05´ 24´´
11:37 Gear Up: 163 Knots
11:37 Flaps:2 at 164 Knots
11:38 Flaps:1 at 206 Knots
11:38 Flaps:0 at 228 Knots
11:42 TOC
11:42 Fuel Weight: 21478 Lb
11:46 TOD
11:46 Fuel Weight: 20621 Lb
11:52 Wind:270º@021 Knots Heading: 122º Ground Speed: 314 Knots Altitude 8969 ft
11:53 Flaps:1 at 240 Knots
11:56 Flaps:2 at 207 Knots
11:57 Flaps:1 at 198 Knots
11:57 Flaps:0 at 197 Knots
11:57 Flaps:2 at 197 Knots
11:57 Gear Down: 197 Knots
11:57 Flaps:3 at 196 Knots
11:57 Flaps:4 at 175 Knots
11:58 Flaps:5 at 168 Knots
11:58 Flaps:6 at 141 Knots
12:02 TouchDown:Rate -257 ft/min Speed: 133 Knots
12:02 VATSIM:LEPA 222230Z 00000KT CAVOK 22/19 Q1015 NOSIG
12:02 Land
12:02 Wind:000º@000 Knots
12:02 Heading: 238º
12:02 Flight Duration: 00:25
12:02 Landing Weight: 249556 Lbs
12:02 POS N39º 32´ 59´´ E002º 45´ 00´´
12:04 Parking brakes on
12:04 Block to Block Duration: 00:33
12:04 Final Fuel: 18417 Lbls
12:04 Spent Fuel: 7660 Lbls
12:04 Flight Length: 123 NM
12:04 TOD Land Length: 68 NM

Exportar CSV

Powered by Drupal - Modified by Danger4k